createdAt,value
2022-10-11T00:00:53.922Z,12.50
2022-10-11T00:03:33.971Z,12.00
2022-10-11T00:06:03.615Z,13.40
2022-10-11T00:08:33.174Z,12.70
2022-10-11T00:11:04.187Z,12.10
2022-10-11T00:13:32.174Z,13.40
2022-10-11T00:16:00.043Z,14.00
2022-10-11T00:18:27.809Z,13.10
2022-10-11T00:21:04.836Z,13.60
2022-10-11T00:23:33.425Z,12.60
2022-10-11T00:26:05.087Z,12.80
2022-10-11T00:28:34.008Z,13.00
2022-10-11T00:31:05.531Z,13.40
2022-10-11T00:33:33.944Z,13.30
2022-10-11T00:36:02.480Z,12.60
2022-10-11T00:38:32.058Z,12.10
2022-10-11T00:41:01.242Z,13.20
2022-10-11T00:43:30.937Z,12.20
2022-10-11T00:46:00.897Z,12.10
2022-10-11T00:48:34.142Z,12.50
2022-10-11T00:51:06.577Z,12.50
2022-10-11T00:53:35.098Z,12.40
2022-10-11T00:56:09.847Z,12.50
2022-10-11T00:58:38.763Z,12.00
2022-10-11T01:01:07.301Z,15.30
2022-10-11T01:03:37.962Z,12.10
2022-10-11T01:06:06.271Z,12.40
2022-10-11T01:08:34.504Z,12.50
2022-10-11T01:11:02.810Z,12.10
2022-10-11T01:13:36.707Z,12.30
2022-10-11T01:16:35.459Z,11.60
2022-10-11T01:19:24.417Z,12.10
2022-10-11T01:22:06.691Z,12.10
2022-10-11T01:24:43.273Z,12.50
2022-10-11T01:27:38.767Z,11.90
2022-10-11T01:30:27.395Z,12.60
2022-10-11T01:33:06.560Z,12.80
2022-10-11T01:35:37.518Z,12.30
2022-10-11T01:38:11.838Z,12.90
2022-10-11T01:40:48.826Z,12.60
2022-10-11T01:43:19.468Z,12.20
2022-10-11T01:48:18.225Z,11.50
2022-10-11T01:50:47.982Z,12.30
2022-10-11T01:53:44.325Z,11.50
2022-10-11T01:56:49.318Z,10.80
2022-10-11T02:00:11.409Z,11.00
2022-10-11T02:03:00.865Z,11.10
2022-10-11T02:05:36.311Z,11.00
2022-10-11T02:08:19.520Z,11.10
2022-10-11T02:10:53.878Z,10.70
2022-10-11T02:13:44.368Z,11.30
2022-10-11T02:16:17.021Z,11.50
2022-10-11T02:18:51.747Z,10.60
2022-10-11T02:21:22.384Z,10.80
2022-10-11T02:23:57.426Z,9.90
2022-10-11T02:26:30.043Z,10.80
2022-10-11T02:29:01.635Z,10.70
2022-10-11T02:31:33.003Z,11.10
2022-10-11T02:34:15.225Z,11.40
2022-10-11T02:37:10.536Z,10.50
2022-10-11T02:39:47.217Z,9.80
2022-10-11T02:42:20.126Z,10.40
2022-10-11T02:44:59.727Z,10.70
2022-10-11T02:47:30.788Z,10.50
2022-10-11T02:50:00.164Z,10.40
2022-10-11T02:52:28.230Z,11.00
2022-10-11T02:54:56.265Z,10.90
2022-10-11T02:57:24.432Z,10.20
2022-10-11T02:59:52.597Z,11.20
2022-10-11T03:02:20.708Z,10.80
2022-10-11T03:04:48.741Z,9.80
2022-10-11T03:07:16.654Z,9.50
2022-10-11T03:09:45.189Z,11.10
2022-10-11T03:12:14.597Z,10.90
2022-10-11T03:14:42.394Z,10.80
2022-10-11T03:17:34.482Z,10.80
2022-10-11T03:19:58.416Z,10.70
2022-10-11T03:22:26.704Z,10.50
2022-10-11T03:24:54.430Z,10.70
2022-10-11T03:27:22.189Z,10.80
2022-10-11T03:29:50.263Z,11.10
2022-10-11T03:32:18.453Z,10.90
2022-10-11T03:34:46.359Z,10.50
2022-10-11T03:37:14.422Z,10.40
2022-10-11T03:39:42.261Z,10.50
2022-10-11T03:42:10.321Z,10.30
2022-10-11T03:44:39.020Z,10.20
2022-10-11T03:47:06.967Z,9.80
2022-10-11T03:49:36.830Z,10.30
2022-10-11T03:52:06.893Z,9.70
2022-10-11T03:54:34.634Z,9.70
2022-10-11T03:57:03.203Z,10.30
2022-10-11T03:59:31.450Z,10.20
2022-10-11T04:01:59.402Z,10.20
2022-10-11T04:04:27.637Z,10.50
2022-10-11T04:06:55.443Z,10.80
2022-10-11T04:09:23.551Z,11.30
2022-10-11T04:11:51.486Z,10.70
2022-10-11T04:14:19.706Z,11.10
2022-10-11T04:16:47.594Z,11.10
2022-10-11T04:19:15.563Z,10.20
2022-10-11T04:21:43.834Z,10.00
2022-10-11T04:24:12.574Z,9.10
2022-10-11T04:26:40.408Z,9.10
2022-10-11T04:29:08.338Z,10.40
2022-10-11T04:31:36.133Z,10.30
2022-10-11T04:34:03.968Z,9.40
2022-10-11T04:36:34.034Z,9.90
2022-10-11T04:39:02.251Z,9.40
2022-10-11T04:41:30.387Z,9.50
2022-10-11T04:43:58.100Z,9.50
2022-10-11T04:46:26.688Z,9.80
2022-10-11T04:48:55.046Z,10.80
2022-10-11T04:51:23.518Z,11.10
2022-10-11T04:53:51.771Z,11.10
2022-10-11T04:56:19.752Z,9.90
2022-10-11T04:58:49.460Z,10.20
2022-10-11T05:01:17.530Z,9.70
2022-10-11T05:03:45.342Z,10.30
2022-10-11T05:06:14.072Z,10.70
2022-10-11T05:08:42.413Z,11.20
2022-10-11T05:11:15.766Z,12.30
2022-10-11T05:13:45.797Z,13.00
2022-10-11T05:16:14.789Z,14.00
2022-10-11T05:18:43.041Z,14.80
2022-10-11T05:21:20.227Z,14.80
2022-10-11T05:23:49.732Z,13.30
2022-10-11T05:26:18.831Z,13.70
2022-10-11T05:28:47.993Z,12.10
2022-10-11T05:31:16.642Z,13.30
2022-10-11T05:33:44.818Z,13.10
2022-10-11T05:36:13.424Z,11.10
2022-10-11T05:38:41.701Z,12.30
2022-10-11T05:41:14.280Z,10.00
2022-10-11T05:43:42.850Z,10.90
2022-10-11T05:46:10.901Z,11.30
2022-10-11T05:48:39.180Z,11.20
2022-10-11T05:51:09.945Z,14.00
2022-10-11T05:53:39.015Z,15.40
2022-10-11T05:56:21.137Z,13.20
2022-10-11T05:58:50.167Z,12.70
2022-10-11T06:01:21.098Z,11.80
2022-10-11T06:03:49.306Z,12.00
2022-10-11T06:06:17.790Z,11.50
2022-10-11T06:08:46.345Z,10.80
2022-10-11T06:11:21.894Z,11.20
2022-10-11T06:13:49.801Z,10.50
2022-10-11T06:16:17.842Z,10.00
2022-10-11T06:18:46.067Z,10.50
2022-10-11T06:21:13.889Z,10.60
2022-10-11T06:23:41.765Z,12.40
2022-10-11T06:26:10.944Z,11.30
2022-10-11T06:28:39.157Z,11.40
2022-10-11T06:31:07.305Z,12.30
2022-10-11T06:33:35.685Z,12.20
2022-10-11T06:36:07.091Z,11.00
2022-10-11T06:38:35.571Z,10.90
2022-10-11T06:41:24.048Z,10.50
2022-10-11T06:43:52.368Z,9.70
2022-10-11T06:46:22.677Z,10.60
2022-10-11T06:48:51.548Z,11.70
2022-10-11T06:51:22.082Z,13.30
2022-10-11T06:53:56.182Z,14.20
2022-10-11T06:56:26.049Z,14.80
2022-10-11T06:58:55.229Z,16.30
2022-10-11T07:01:24.055Z,14.00
2022-10-11T07:03:54.386Z,13.90
2022-10-11T07:06:25.034Z,12.60
2022-10-11T07:08:54.106Z,12.20
2022-10-11T07:11:24.952Z,11.70
2022-10-11T07:13:58.606Z,10.90
2022-10-11T07:16:28.677Z,10.60
2022-10-11T07:21:32.624Z,9.50
2022-10-11T07:24:01.284Z,9.90
2022-10-11T07:26:36.686Z,9.40
2022-10-11T07:29:08.307Z,10.90
2022-10-11T07:31:38.431Z,9.60
2022-10-11T07:34:06.359Z,9.90
2022-10-11T07:36:34.729Z,10.10
2022-10-11T07:39:07.900Z,10.00
2022-10-11T07:41:38.842Z,9.80
2022-10-11T07:44:08.489Z,10.70
2022-10-11T07:46:36.980Z,10.90
2022-10-11T07:49:05.158Z,11.40
2022-10-11T07:51:33.251Z,12.90
2022-10-11T07:54:06.139Z,13.60
2022-10-11T07:56:37.036Z,14.20
2022-10-11T07:59:05.246Z,14.40
2022-10-11T08:01:33.340Z,13.40
2022-10-11T08:04:01.273Z,12.80
2022-10-11T08:06:32.479Z,14.10
2022-10-11T08:09:01.750Z,15.50
2022-10-11T08:11:32.636Z,14.20
2022-10-11T08:14:01.734Z,13.30
2022-10-11T08:16:30.056Z,12.30
2022-10-11T08:18:58.088Z,12.00
2022-10-11T08:21:26.953Z,11.30
2022-10-11T08:23:55.157Z,12.20
2022-10-11T08:26:24.080Z,11.80
2022-10-11T08:28:52.295Z,12.10
2022-10-11T08:31:20.379Z,11.90
2022-10-11T08:33:48.148Z,11.10
2022-10-11T08:36:15.992Z,11.20
2022-10-11T08:38:43.942Z,10.90
2022-10-11T08:41:20.687Z,11.50
2022-10-11T08:44:14.551Z,11.50
2022-10-11T08:46:48.959Z,11.90
2022-10-11T08:49:20.391Z,12.00
2022-10-11T08:52:00.371Z,11.30
2022-10-11T08:54:40.689Z,11.30
2022-10-11T08:57:14.956Z,11.60
2022-10-11T08:59:51.103Z,11.30
2022-10-11T09:03:06.306Z,11.50
2022-10-11T09:05:34.250Z,10.80
2022-10-11T09:08:18.552Z,10.80
2022-10-11T09:11:10.309Z,11.50
2022-10-11T09:13:51.987Z,11.70
2022-10-11T09:16:58.873Z,11.50
2022-10-11T09:19:46.676Z,12.40
2022-10-11T09:22:30.336Z,12.70
2022-10-11T09:25:15.455Z,13.30
2022-10-11T09:28:20.413Z,13.20
2022-10-11T09:30:52.518Z,13.50
2022-10-11T09:33:32.371Z,13.30
2022-10-11T09:36:01.813Z,13.20
2022-10-11T09:38:41.121Z,14.40
2022-10-11T09:41:25.524Z,15.90
2022-10-11T09:43:54.639Z,15.30
2022-10-11T09:46:29.841Z,15.20
2022-10-11T09:48:58.094Z,15.70
2022-10-11T09:51:28.336Z,16.30
2022-10-11T09:54:02.650Z,15.70
2022-10-11T09:56:33.608Z,17.20
2022-10-11T09:59:29.680Z,15.00
2022-10-11T10:02:13.059Z,15.40
2022-10-11T10:05:08.475Z,14.90
2022-10-11T10:07:41.264Z,16.60
2022-10-11T10:10:30.039Z,15.10
2022-10-11T10:13:01.637Z,15.60
2022-10-11T10:15:35.951Z,15.70
2022-10-11T10:18:10.784Z,16.50
2022-10-11T10:20:39.002Z,16.60
2022-10-11T10:23:21.835Z,15.50
2022-10-11T10:25:51.976Z,17.40
2022-10-11T10:28:26.661Z,17.20
2022-10-11T10:30:57.891Z,17.20
2022-10-11T10:33:30.815Z,17.00
2022-10-11T10:36:05.489Z,17.40
2022-10-11T10:38:36.556Z,18.40
2022-10-11T10:41:09.543Z,18.10
2022-10-11T10:43:40.439Z,17.80
2022-10-11T10:46:27.109Z,17.50
2022-10-11T10:49:34.912Z,16.10
2022-10-11T10:52:11.305Z,16.30
2022-10-11T10:55:03.222Z,15.10
2022-10-11T10:58:13.906Z,13.60
2022-10-11T11:00:50.201Z,13.20
2022-10-11T11:03:41.896Z,13.50
2022-10-11T11:06:26.707Z,13.30
2022-10-11T11:09:14.151Z,13.70
2022-10-11T11:12:08.545Z,13.50
2022-10-11T11:14:44.139Z,13.60
2022-10-11T11:17:23.390Z,12.90
2022-10-11T11:20:08.975Z,12.50
2022-10-11T11:23:00.121Z,13.50
2022-10-11T11:25:49.267Z,13.30
2022-10-11T11:28:55.098Z,14.20
2022-10-11T11:31:25.978Z,13.00
2022-10-11T11:34:05.423Z,13.40
2022-10-11T11:36:48.921Z,12.60
2022-10-11T11:39:21.660Z,13.30
2022-10-11T11:41:58.556Z,12.80
2022-10-11T11:44:37.819Z,12.30
2022-10-11T11:47:12.513Z,13.00
2022-10-11T11:49:46.244Z,13.30
2022-10-11T11:52:27.080Z,12.40
2022-10-11T11:55:37.878Z,12.30
2022-10-11T11:58:17.933Z,11.20
2022-10-11T12:01:04.741Z,11.80
2022-10-11T12:03:41.593Z,10.40
2022-10-11T12:06:28.834Z,10.70
2022-10-11T12:09:23.109Z,10.60
2022-10-11T12:12:04.404Z,9.80
2022-10-11T12:14:32.401Z,9.90
2022-10-11T12:17:15.803Z,9.30
2022-10-11T12:20:08.800Z,9.40
2022-10-11T12:22:50.753Z,10.20
2022-10-11T12:25:22.012Z,9.90
2022-10-11T12:27:53.322Z,9.20
2022-10-11T12:30:39.861Z,9.90
2022-10-11T12:33:22.993Z,9.70
2022-10-11T12:35:54.061Z,9.00
2022-10-11T12:38:29.450Z,7.90
2022-10-11T12:41:19.021Z,8.50
2022-10-11T12:43:50.458Z,8.60
2022-10-11T12:46:31.164Z,9.00
2022-10-11T12:49:01.786Z,8.20
2022-10-11T12:51:42.342Z,8.00
2022-10-11T12:54:36.763Z,8.50
2022-10-11T12:57:41.424Z,7.30
2022-10-11T13:00:29.493Z,7.80
2022-10-11T13:03:05.892Z,8.10
2022-10-11T13:05:49.688Z,7.90
2022-10-11T13:08:31.534Z,8.30
2022-10-11T13:11:04.378Z,8.30
2022-10-11T13:13:38.047Z,7.50
2022-10-11T13:16:16.912Z,7.40
2022-10-11T13:18:47.555Z,7.30
2022-10-11T13:21:26.877Z,7.20
2022-10-11T13:23:59.889Z,7.60
2022-10-11T13:26:30.596Z,8.30
2022-10-11T13:29:00.396Z,8.40
2022-10-11T13:31:28.754Z,7.20
2022-10-11T13:33:59.208Z,8.10
2022-10-11T13:36:27.599Z,7.50
2022-10-11T13:39:01.548Z,8.00
2022-10-11T13:41:31.863Z,8.20
2022-10-11T13:44:00.501Z,8.20
2022-10-11T13:46:30.690Z,8.40
2022-10-11T13:49:25.738Z,8.20
2022-10-11T13:52:00.734Z,8.30
2022-10-11T13:54:53.715Z,8.10
2022-10-11T13:57:36.479Z,8.40
2022-10-11T14:00:22.778Z,8.40
2022-10-11T14:02:59.159Z,9.80
2022-10-11T14:05:37.053Z,8.60
2022-10-11T14:08:18.426Z,8.80
2022-10-11T14:10:50.740Z,7.70
2022-10-11T14:13:44.543Z,9.00
2022-10-11T14:18:50.754Z,8.60
2022-10-11T14:21:34.795Z,9.30
2022-10-11T14:24:05.596Z,9.10
2022-10-11T14:26:39.765Z,9.20
2022-10-11T14:29:13.034Z,10.00
2022-10-11T14:31:42.271Z,9.80
2022-10-11T14:34:17.491Z,11.30
2022-10-11T14:36:45.619Z,9.30
2022-10-11T14:39:16.898Z,9.00
2022-10-11T14:41:46.038Z,9.60
2022-10-11T14:44:15.158Z,9.30
2022-10-11T14:46:43.816Z,9.50
2022-10-11T14:49:20.317Z,10.30
2022-10-11T14:51:50.007Z,9.80
2022-10-11T14:54:22.551Z,9.40
2022-10-11T14:56:52.845Z,9.50
2022-10-11T15:01:54.294Z,9.00
2022-10-11T15:04:25.138Z,9.60
2022-10-11T15:06:55.812Z,9.80
2022-10-11T15:09:30.288Z,9.90
2022-10-11T15:11:59.119Z,10.60
2022-10-11T15:14:27.234Z,10.30
2022-10-11T15:16:56.420Z,9.70
2022-10-11T15:19:25.451Z,10.20
2022-10-11T15:21:53.754Z,10.00
2022-10-11T15:24:21.605Z,9.90
2022-10-11T15:26:49.808Z,9.50
2022-10-11T15:29:18.336Z,9.30
2022-10-11T15:31:46.512Z,10.00
2022-10-11T15:34:14.379Z,15.20
2022-10-11T15:36:42.856Z,10.80
2022-10-11T15:39:26.952Z,13.80
2022-10-11T15:41:55.095Z,11.90
2022-10-11T15:44:23.187Z,11.20
2022-10-11T15:46:51.861Z,11.60
2022-10-11T15:49:19.681Z,12.00
2022-10-11T15:51:48.228Z,12.50
2022-10-11T15:54:16.359Z,12.00
2022-10-11T15:56:44.322Z,12.30
2022-10-11T15:59:12.999Z,12.40
2022-10-11T16:01:40.930Z,12.10
2022-10-11T16:04:09.583Z,12.00
2022-10-11T16:06:37.398Z,11.90
2022-10-11T16:09:05.433Z,13.30
2022-10-11T16:11:33.246Z,12.70
2022-10-11T16:14:01.284Z,12.50
2022-10-11T16:16:29.038Z,13.00
2022-10-11T16:18:57.001Z,12.20
2022-10-11T16:21:25.016Z,12.50
2022-10-11T16:23:52.848Z,12.70
2022-10-11T16:26:20.967Z,13.00
2022-10-11T16:28:49.135Z,12.40
2022-10-11T16:31:20.672Z,13.00
2022-10-11T16:33:49.118Z,13.60
2022-10-11T16:36:36.311Z,12.70
2022-10-11T16:39:11.174Z,11.70
2022-10-11T16:41:39.397Z,12.50
2022-10-11T16:44:13.366Z,12.80
2022-10-11T16:46:42.704Z,13.70
2022-10-11T16:49:10.800Z,12.10
2022-10-11T16:51:38.998Z,12.80
2022-10-11T16:54:07.820Z,12.70
2022-10-11T16:56:39.728Z,13.30
2022-10-11T16:59:08.362Z,13.90
2022-10-11T17:01:37.633Z,12.90
2022-10-11T17:04:06.012Z,14.80
2022-10-11T17:06:34.094Z,17.40
2022-10-11T17:09:03.259Z,15.80
2022-10-11T17:11:31.353Z,16.90
2022-10-11T17:14:00.817Z,17.80
2022-10-11T17:16:29.184Z,17.00
2022-10-11T17:18:57.300Z,16.00
2022-10-11T17:21:25.446Z,17.30
2022-10-11T17:23:53.225Z,16.40
2022-10-11T17:26:26.753Z,15.50
2022-10-11T17:28:56.510Z,15.50
2022-10-11T17:31:25.253Z,15.60
2022-10-11T17:33:55.035Z,16.60
2022-10-11T17:36:27.766Z,17.50
2022-10-11T17:38:56.623Z,25.90
2022-10-11T17:41:29.430Z,20.00
2022-10-11T17:44:00.095Z,16.80
2022-10-11T17:46:32.433Z,16.20
2022-10-11T17:49:02.274Z,15.90
2022-10-11T17:51:30.926Z,15.10
2022-10-11T17:53:58.736Z,14.60
2022-10-11T17:56:31.354Z,14.60
2022-10-11T17:59:01.802Z,16.20
2022-10-11T18:01:30.257Z,15.90
2022-10-11T18:04:00.489Z,14.90
2022-10-11T18:06:31.368Z,15.60
2022-10-11T18:09:03.262Z,15.40
2022-10-11T18:11:31.628Z,14.70
2022-10-11T18:13:59.510Z,14.40
2022-10-11T18:16:29.919Z,14.40
2022-10-11T18:18:58.801Z,14.00
2022-10-11T18:21:33.662Z,14.50
2022-10-11T18:24:04.909Z,13.60
2022-10-11T18:26:33.556Z,14.80
2022-10-11T18:29:01.538Z,14.00
2022-10-11T18:31:34.129Z,13.90
2022-10-11T18:34:03.971Z,15.00
2022-10-11T18:36:32.880Z,14.20
2022-10-11T18:39:04.500Z,13.90
2022-10-11T18:41:34.167Z,16.60
2022-10-11T18:44:05.894Z,15.70
2022-10-11T18:46:34.688Z,15.50
2022-10-11T18:49:02.907Z,15.10
2022-10-11T18:51:36.464Z,15.80
2022-10-11T18:54:06.202Z,16.20
2022-10-11T18:56:37.051Z,16.60
2022-10-11T18:59:06.315Z,16.20
2022-10-11T19:01:38.528Z,15.40
2022-10-11T19:04:09.053Z,16.20
2022-10-11T19:06:40.634Z,18.30
2022-10-11T19:09:14.683Z,16.20
2022-10-11T19:11:42.831Z,15.00
2022-10-11T19:14:14.906Z,15.40
2022-10-11T19:16:49.086Z,15.20
2022-10-11T19:19:23.025Z,14.00
2022-10-11T19:21:51.604Z,15.40
2022-10-11T19:24:22.336Z,14.50
2022-10-11T19:26:51.682Z,14.30
2022-10-11T19:29:22.759Z,13.40
2022-10-11T19:31:55.558Z,13.70
2022-10-11T19:34:27.761Z,14.40
2022-10-11T19:36:56.500Z,13.50
2022-10-11T19:39:24.792Z,13.10
2022-10-11T19:41:52.971Z,14.50
2022-10-11T19:44:20.989Z,14.70
2022-10-11T19:46:52.075Z,14.20
2022-10-11T19:49:25.309Z,14.40
2022-10-11T19:51:55.330Z,14.60
2022-10-11T19:54:23.996Z,14.30
2022-10-11T19:56:52.970Z,15.50
2022-10-11T19:59:21.020Z,14.20
2022-10-11T20:01:52.697Z,14.20
2022-10-11T20:07:09.621Z,14.90
2022-10-11T20:09:37.900Z,14.20
2022-10-11T20:12:06.272Z,14.30
2022-10-11T20:14:34.137Z,14.00
2022-10-11T20:17:02.135Z,13.80
2022-10-11T20:19:31.262Z,14.20
2022-10-11T20:22:01.569Z,13.70
2022-10-11T20:24:33.750Z,14.00
2022-10-11T20:27:05.149Z,14.40
2022-10-11T20:29:33.685Z,14.30
2022-10-11T20:32:01.885Z,13.40
2022-10-11T20:34:30.596Z,14.20
2022-10-11T20:36:58.910Z,14.00
2022-10-11T20:39:26.974Z,14.10
2022-10-11T20:41:54.934Z,14.30
2022-10-11T20:44:22.927Z,13.90
2022-10-11T20:46:51.079Z,14.90
2022-10-11T20:49:20.085Z,14.90
2022-10-11T20:51:49.065Z,13.20
2022-10-11T20:54:17.362Z,13.10
2022-10-11T20:56:45.588Z,13.60
2022-10-11T20:59:13.577Z,13.00
2022-10-11T21:01:42.014Z,12.90
2022-10-11T21:04:17.840Z,12.70
2022-10-11T21:06:47.515Z,13.70
2022-10-11T21:09:16.965Z,13.60
2022-10-11T21:11:45.523Z,14.50
2022-10-11T21:14:14.221Z,13.70
2022-10-11T21:16:42.106Z,12.90
2022-10-11T21:19:13.841Z,12.30
2022-10-11T21:21:42.580Z,12.40
2022-10-11T21:24:10.409Z,13.10
2022-10-11T21:26:38.481Z,12.30
2022-10-11T21:29:06.406Z,13.30
2022-10-11T21:31:34.795Z,12.10
2022-10-11T21:34:05.254Z,12.30
2022-10-11T21:36:33.033Z,13.00
2022-10-11T21:39:01.181Z,12.90
2022-10-11T21:41:30.155Z,11.70
2022-10-11T21:43:58.504Z,12.20
2022-10-11T21:46:54.234Z,11.50
2022-10-11T21:49:17.270Z,11.70
2022-10-11T21:51:45.468Z,11.70
2022-10-11T21:54:13.239Z,12.90
2022-10-11T21:56:41.611Z,11.60
2022-10-11T21:59:12.370Z,12.30
2022-10-11T22:01:41.878Z,11.60
2022-10-11T22:04:11.359Z,11.90
2022-10-11T22:06:40.217Z,11.70
2022-10-11T22:09:08.828Z,10.70
2022-10-11T22:11:37.129Z,11.90
2022-10-11T22:14:05.274Z,13.40
2022-10-11T22:16:33.742Z,13.40
2022-10-11T22:19:02.226Z,13.90
2022-10-11T22:21:30.138Z,14.90
2022-10-11T22:23:58.441Z,13.10
2022-10-11T22:26:31.037Z,15.10
2022-10-11T22:29:00.696Z,14.60
2022-10-11T22:31:30.227Z,13.60
2022-10-11T22:34:00.359Z,14.10
2022-10-11T22:36:34.062Z,13.70
2022-10-11T22:39:07.761Z,13.00
2022-10-11T22:41:36.802Z,12.90
2022-10-11T22:44:04.871Z,13.30
2022-10-11T22:46:32.632Z,13.30
2022-10-11T22:49:00.480Z,13.70
2022-10-11T22:51:28.463Z,13.50
2022-10-11T22:53:56.573Z,12.80
2022-10-11T22:56:24.512Z,13.00
2022-10-11T22:58:52.351Z,13.40
2022-10-11T23:01:20.246Z,12.80
2022-10-11T23:03:50.686Z,13.40
2022-10-11T23:06:19.221Z,13.50
2022-10-11T23:08:47.114Z,12.80
2022-10-11T23:11:14.951Z,12.80
2022-10-11T23:13:42.796Z,13.30
2022-10-11T23:16:12.456Z,13.00
2022-10-11T23:18:40.343Z,13.10
2022-10-11T23:21:08.578Z,12.90
2022-10-11T23:23:37.173Z,12.70
2022-10-11T23:26:12.648Z,12.80
2022-10-11T23:28:41.040Z,12.60
2022-10-11T23:31:11.523Z,12.70
2022-10-11T23:33:39.729Z,11.90
2022-10-11T23:36:23.855Z,13.50
2022-10-11T23:38:53.662Z,12.10
2022-10-11T23:41:23.391Z,12.60
2022-10-11T23:43:51.560Z,12.40
2022-10-11T23:46:19.452Z,12.80
2022-10-11T23:48:47.962Z,12.00
2022-10-11T23:51:16.098Z,12.20
2022-10-11T23:53:44.320Z,12.80
2022-10-11T23:56:12.913Z,13.40
2022-10-11T23:58:41.157Z,13.40
